Time;durP1;ratioP1;P1;durP2;ratioP2;P2;SDS_P1;SDS_P2;PMS_P1;PMS_P2;Temp;Humidity;BMP_temperature;BMP_pressure;BME280_temperature;BME280_humidity;BME280_pressure;Samples;Min_cycle;Max_cycle;Signal;HPM_P1;HPM_P2
2022/06/23 00:01:45;;;;;;;0.10;0.10;;;;;;;22.41;47.79;100761.75;5138984;27;20079;-38
2022/06/23 00:04:13;;;;;;;0.10;0.10;;;;;;;22.43;47.76;100766.97;5143077;27;20070;-41
2022/06/23 00:06:43;;;;;;;0.10;0.10;;;;;;;22.43;47.79;100764.22;5140374;27;20043;-40
2022/06/23 00:09:32;;;;;;;0.10;0.10;;;;;;;22.42;47.73;100765.34;5121283;27;20116;-40
2022/06/23 00:11:59;;;;;;;0.10;0.10;;;;;;;22.42;47.79;100762.56;5125223;27;20046;-38
2022/06/23 00:14:26;;;;;;;0.10;0.10;;;;;;;22.42;47.65;100762.56;5142252;27;20106;-38
2022/06/23 00:16:52;;;;;;;0.10;0.10;;;;;;;22.43;47.65;100769.75;5126458;27;20441;-37
2022/06/23 00:19:17;;;;;;;0.10;0.10;;;;;;;22.42;47.85;100776.44;5124362;27;20050;-40
2022/06/23 00:21:47;;;;;;;0.10;0.10;;;;;;;22.41;47.67;100774.78;5140761;27;20054;-40
2022/06/23 00:24:17;;;;;;;0.10;0.10;;;;;;;22.41;47.84;100778.41;5121490;28;20070;-42
2022/06/23 00:26:43;;;;;;;0.10;0.10;;;;;;;22.40;47.68;100773.97;5143559;27;20507;-38
2022/06/23 00:29:13;;;;;;;0.10;0.10;;;;;;;22.40;47.78;100768.41;5140227;27;20050;-40
2022/06/23 00:31:43;;;;;;;0.10;0.10;;;;;;;22.42;47.74;100760.63;5120862;27;20476;-40
2022/06/23 00:34:44;;;;;;;0.10;0.10;;;;;;;22.41;47.72;100760.91;5143258;27;20062;-42
2022/06/23 00:37:13;;;;;;;0.10;0.10;;;;;;;22.41;47.73;100750.66;5122758;27;20182;-41
2022/06/23 00:39:50;;;;;;;0.10;0.10;;;;;;;22.40;47.73;100762.84;5138133;27;20071;-38
2022/06/23 00:42:35;;;;;;;0.10;0.10;;;;;;;22.41;47.75;100755.34;5122219;27;20066;-40
2022/06/23 00:45:26;;;;;;;0.10;0.10;;;;;;;22.40;47.72;100748.16;5121632;27;20096;-41
2022/06/23 00:48:23;;;;;;;0.10;0.10;;;;;;;22.40;47.65;100743.44;5119787;28;20070;-40
2022/06/23 00:51:00;;;;;;;0.10;0.10;;;;;;;22.40;47.75;100745.38;5125535;27;20099;-40
2022/06/23 00:53:37;;;;;;;0.10;0.10;;;;;;;22.40;47.49;100750.94;5121959;27;20043;-38
2022/06/23 00:56:19;;;;;;;0.10;0.10;;;;;;;22.40;47.67;100748.16;5117919;27;20067;-40
2022/06/23 00:58:51;;;;;;;0.10;0.10;;;;;;;22.40;47.64;100748.16;5126708;27;20054;-37
2022/06/23 01:04:51;;;;;;;0.10;0.10;;;;;;;22.40;47.71;100737.88;5165139;27;20112;-41
2022/06/23 01:07:56;;;;;;;0.10;0.10;;;;;;;22.40;47.74;100746.22;5136423;27;20087;-40
2022/06/23 01:10:33;;;;;;;0.10;0.10;;;;;;;22.39;47.76;100744.56;5148416;27;20062;-38
2022/06/23 01:13:06;;;;;;;0.10;0.10;;;;;;;22.39;47.71;100743.75;5138385;27;20078;-39
2022/06/23 01:15:38;;;;;;;0.10;0.10;;;;;;;22.40;47.78;100750.94;5143510;27;20481;-39
2022/06/23 01:18:16;;;;;;;0.10;0.10;;;;;;;22.40;47.65;100753.72;5140128;27;20130;-40
2022/06/23 01:20:51;;;;;;;0.10;0.10;;;;;;;22.39;47.67;100743.75;5164210;27;20074;-38
2022/06/23 01:26:22;;;;;;;0.10;0.10;;;;;;;22.39;47.67;100747.34;5165846;27;20114;-40
2022/06/23 01:28:48;;;;;;;0.10;0.10;;;;;;;22.39;47.82;100750.13;5150477;27;20046;-41
2022/06/23 01:31:20;;;;;;;0.10;0.10;;;;;;;22.39;47.71;100755.66;5155218;27;20047;-40
2022/06/23 01:33:52;;;;;;;0.10;0.10;;;;;;;22.38;47.81;100754.03;5156553;27;20046;-42
2022/06/23 01:36:23;;;;;;;0.10;0.10;;;;;;;22.40;47.63;100767.59;5118226;27;20078;-40
2022/06/23 01:39:04;;;;;;;0.10;0.10;;;;;;;22.38;47.79;100756.00;5154770;27;20443;-40
2022/06/23 01:44:57;;;;;;;0.10;0.10;;;;;;;22.38;47.71;100761.53;5160057;27;20117;-41
2022/06/23 01:47:50;;;;;;;0.10;0.10;;;;;;;22.38;47.75;100756.81;5130291;27;20047;-39
2022/06/23 01:50:35;;;;;;;0.10;0.10;;;;;;;22.38;47.94;100756.00;5136752;27;20080;-40
2022/06/23 01:53:13;;;;;;;0.10;0.10;;;;;;;22.39;47.84;100754.84;5109726;27;20106;-40
2022/06/23 01:58:47;;;;;;;0.10;0.10;;;;;;;22.38;47.84;100759.59;5167784;27;20205;-39
2022/06/23 02:01:19;;;;;;;0.10;0.10;;;;;;;22.37;47.76;100746.84;5138452;27;20437;-40
2022/06/23 02:03:51;;;;;;;0.10;0.10;;;;;;;22.38;47.85;100753.22;5142704;27;20039;-40
2022/06/23 02:06:29;;;;;;;0.10;0.10;;;;;;;22.37;47.91;100755.16;5161206;27;20084;-39
2022/06/23 02:09:05;;;;;;;0.10;0.10;;;;;;;22.37;47.89;100757.13;5145608;27;20125;-40
2022/06/23 02:11:45;;;;;;;0.10;0.10;;;;;;;22.37;47.79;100759.91;5163117;27;20525;-41
2022/06/23 02:14:36;;;;;;;0.10;0.10;;;;;;;22.37;47.77;100760.72;5143619;27;20077;-41
2022/06/23 02:17:16;;;;;;;0.10;0.10;;;;;;;22.38;47.83;100758.75;5141606;27;20126;-38
2022/06/23 02:19:46;;;;;;;0.10;0.10;;;;;;;22.38;47.77;100756.00;5143488;27;20137;-40
2022/06/23 02:22:32;;;;;;;0.10;0.10;;;;;;;22.38;47.90;100758.75;5128836;27;20509;-39
2022/06/23 02:25:12;;;;;;;0.10;0.10;;;;;;;22.37;47.79;100757.94;5144402;27;20042;-39
2022/06/23 02:27:44;;;;;;;0.10;0.10;;;;;;;22.38;47.79;100756.00;5142256;27;20125;-41
2022/06/23 02:30:20;;;;;;;0.10;0.10;;;;;;;22.37;47.89;100752.41;5164340;27;20504;-39
2022/06/23 02:32:59;;;;;;;0.10;0.10;;;;;;;22.38;47.72;100764.31;5142886;27;20085;-40
2022/06/23 02:35:30;;;;;;;0.17;0.17;;;;;;;22.38;47.69;100758.75;5165010;27;20079;-39
2022/06/23 02:38:04;;;;;;;0.10;0.10;;;;;;;22.37;47.82;100752.41;5143841;27;20078;-39
2022/06/23 02:40:42;;;;;;;0.10;0.10;;;;;;;22.36;47.75;100753.50;5159933;27;20089;-40
2022/06/23 02:46:11;;;;;;;0.10;0.10;;;;;;;22.37;47.90;100759.91;5176874;27;20131;-39
2022/06/23 02:48:49;;;;;;;0.10;0.10;;;;;;;22.36;47.83;100750.72;5138248;27;20046;-38
2022/06/23 02:51:40;;;;;;;0.10;0.10;;;;;;;22.36;47.90;100759.06;5160092;27;20125;-36
2022/06/23 02:54:18;;;;;;;0.10;0.10;;;;;;;22.36;47.93;100758.22;5143095;27;20093;-39
2022/06/23 02:57:04;;;;;;;;;;;;;;;22.35;47.79;100757.41;5154173;27;20485;-37
2022/06/23 02:59:40;;;;;;;0.10;0.10;;;;;;;22.36;47.92;100761.00;5143394;27;19927;-37
2022/06/23 03:02:11;;;;;;;0.10;0.10;;;;;;;22.35;47.79;100762.13;5156352;27;20122;-40
2022/06/23 03:04:56;;;;;;;0.10;0.10;;;;;;;22.36;47.86;100758.22;5155579;27;20078;-41
2022/06/23 03:07:42;;;;;;;0.10;0.10;;;;;;;22.35;47.79;100764.91;5158025;27;20118;-41
2022/06/23 03:10:30;;;;;;;0.10;0.10;;;;;;;22.36;47.94;100767.38;5153275;27;20078;-39
2022/06/23 03:13:07;;;;;;;0.10;0.10;;;;;;;22.35;47.91;100762.13;5124714;27;20513;-40
2022/06/23 03:15:38;;;;;;;0.10;0.10;;;;;;;22.36;47.86;100763.78;5153410;27;20066;-40
2022/06/23 03:18:10;;;;;;;0.10;0.10;;;;;;;22.35;47.83;100762.13;5120474;27;20171;-40
2022/06/23 03:20:43;;;;;;;0.10;0.10;;;;;;;22.35;47.84;100759.38;5152459;27;20070;-40
2022/06/23 03:23:30;;;;;;;0.10;0.10;;;;;;;22.36;47.87;100763.78;5156854;27;20476;-39
2022/06/23 03:26:08;;;;;;;0.10;0.10;;;;;;;22.35;47.89;100770.47;5157004;27;20454;-37
2022/06/23 03:28:40;;;;;;;0.10;0.10;;;;;;;22.35;47.97;100767.69;5147005;27;20082;-41
2022/06/23 03:31:27;;;;;;;0.10;0.10;;;;;;;22.35;47.78;100770.47;5153244;27;20496;-36
2022/06/23 03:33:59;;;;;;;0.10;0.10;;;;;;;22.35;47.88;100762.13;5137460;27;20111;-41
2022/06/23 03:36:32;;;;;;;0.10;0.10;;;;;;;22.34;47.83;100754.94;5156573;27;20168;-42
2022/06/23 03:42:15;;;;;;;0.10;0.10;;;;;;;22.34;47.96;100766.06;5128185;27;20179;-40
2022/06/23 03:45:05;;;;;;;0.13;0.13;;;;;;;22.34;47.78;100766.06;5125294;27;20127;-40
2022/06/23 03:47:42;;;;;;;0.10;0.10;;;;;;;22.34;47.96;100766.06;5128643;27;20038;-41
2022/06/23 03:50:29;;;;;;;0.10;0.10;;;;;;;22.34;47.93;100768.81;5145113;27;20089;-40
2022/06/23 03:53:17;;;;;;;0.10;0.10;;;;;;;22.33;47.92;100768.00;5111909;27;20050;-39
2022/06/23 03:55:48;;;;;;;0.10;0.10;;;;;;;22.33;48.04;100769.97;5104232;28;20077;-41
2022/06/23 04:03:57;;;;;;;0.10;0.10;;;;;;;22.34;48.02;100760.50;5167392;27;20124;-40
2022/06/23 04:06:41;;;;;;;0.10;0.10;;;;;;;22.33;48.01;100758.88;5149544;27;20047;-40
2022/06/23 04:09:28;;;;;;;0.10;0.10;;;;;;;22.33;47.88;100764.41;5129274;27;20496;-40
2022/06/23 04:11:59;;;;;;;0.10;0.10;;;;;;;22.33;47.95;100768.00;5132079;27;20053;-40
2022/06/23 04:14:48;;;;;;;0.10;0.10;;;;;;;22.33;47.87;100764.41;5147618;27;20077;-40
2022/06/23 04:17:38;;;;;;;0.10;0.10;;;;;;;22.33;47.89;100767.19;5132260;27;20135;-40
2022/06/23 04:20:40;;;;;;;0.10;0.10;;;;;;;22.32;47.80;100760.78;5132584;27;20147;-40
2022/06/23 04:23:17;;;;;;;0.10;0.10;;;;;;;22.33;48.00;100764.41;5130599;27;20091;-40
2022/06/23 04:25:56;;;;;;;0.10;0.10;;;;;;;22.32;47.90;100762.75;5132085;27;20089;-40
2022/06/23 04:28:44;;;;;;;0.10;0.10;;;;;;;22.33;48.03;100768.00;5113370;27;20511;-40
2022/06/23 04:31:16;;;;;;;0.00;0.00;;;;;;;22.33;47.95;100762.47;5121053;27;20074;-41
2022/06/23 04:33:43;;;;;;;0.10;0.10;;;;;;;22.31;47.99;100767.47;5111911;27;20051;-40
2022/06/23 04:36:21;;;;;;;0.10;0.10;;;;;;;22.32;48.02;100769.13;5126590;27;20119;-40
2022/06/23 04:38:52;;;;;;;0.10;0.10;;;;;;;22.32;47.84;100763.56;5145779;27;20142;-41
2022/06/23 04:41:25;;;;;;;0.10;0.10;;;;;;;22.32;48.14;100762.75;5127571;27;20107;-40
2022/06/23 04:43:55;;;;;;;0.10;0.10;;;;;;;22.31;48.14;100770.25;5126106;27;20155;-41
2022/06/23 04:46:44;;;;;;;0.10;0.10;;;;;;;22.31;48.16;100770.25;5145907;27;20779;-41
2022/06/23 04:49:22;;;;;;;0.10;0.10;;;;;;;22.31;48.27;100772.19;5125164;27;20608;-41
2022/06/23 04:51:53;;;;;;;0.10;0.10;;;;;;;22.32;48.22;100768.28;5145653;27;20078;-40
2022/06/23 04:54:23;;;;;;;0.10;0.10;;;;;;;22.32;48.05;100769.13;5110850;27;20039;-40
2022/06/23 04:56:54;;;;;;;0.10;0.10;;;;;;;22.33;48.18;100772.75;5113183;27;20646;-40
2022/06/23 04:59:39;;;;;;;0.20;0.20;;;;;;;22.32;48.10;100779.41;5126469;27;20038;-40
2022/06/23 05:02:20;;;;;;;0.10;0.10;;;;;;;22.32;48.18;100768.28;5146545;27;20078;-38
2022/06/23 05:04:51;;;;;;;0.10;0.10;;;;;;;22.30;48.22;100771.38;5146322;27;20080;-40
2022/06/23 05:07:22;;;;;;;0.10;0.10;;;;;;;22.32;48.22;100774.66;5126487;27;20612;-41
2022/06/23 05:09:49;;;;;;;0.10;0.10;;;;;;;22.32;48.21;100774.66;5143657;27;20126;-40
2022/06/23 05:12:22;;;;;;;0.10;0.10;;;;;;;22.32;48.08;100779.41;5147507;27;20121;-40
2022/06/23 05:14:52;;;;;;;0.10;0.10;;;;;;;22.32;48.19;100782.16;5112098;27;20081;-41
2022/06/23 05:17:21;;;;;;;0.10;0.10;;;;;;;22.33;48.15;100781.06;5129099;27;20082;-41
2022/06/23 05:19:47;;;;;;;0.10;0.10;;;;;;;22.32;48.23;100779.41;5100470;27;20130;-40
2022/06/23 05:22:35;;;;;;;0.10;0.10;;;;;;;22.32;48.13;100784.94;5132180;27;20086;-40
2022/06/23 05:25:28;;;;;;;0.10;0.10;;;;;;;22.32;48.12;100782.16;5115941;27;20398;-40
2022/06/23 05:27:54;;;;;;;0.10;0.10;;;;;;;22.33;48.12;100775.50;5114922;27;20036;-40
2022/06/23 05:30:28;;;;;;;0.10;0.10;;;;;;;22.34;48.21;100777.16;5130073;27;20088;-40
2022/06/23 05:33:04;;;;;;;0.10;0.10;;;;;;;22.34;47.84;100779.94;5126016;27;20543;-40
2022/06/23 05:35:42;;;;;;;0.10;0.10;;;;;;;22.33;48.11;100781.88;5111077;28;20128;-40
2022/06/23 05:38:22;;;;;;;0.10;0.10;;;;;;;22.33;48.08;100770.78;5128514;27;20074;-40
2022/06/23 05:40:58;;;;;;;0.10;0.10;;;;;;;22.32;47.80;100771.88;5109264;27;20088;-41
2022/06/23 05:43:25;;;;;;;0.10;0.10;;;;;;;22.33;47.95;100773.56;5090105;28;20167;-41
2022/06/23 05:45:54;;;;;;;0.10;0.10;;;;;;;22.34;47.81;100768.81;5092473;28;20523;-42
2022/06/23 05:48:23;;;;;;;0.10;0.10;;;;;;;22.34;47.67;100774.38;5074562;28;20096;-40
2022/06/23 05:51:01;;;;;;;0.10;0.10;;;;;;;22.35;48.01;100778.78;5085905;28;20566;-40
2022/06/23 05:53:34;;;;;;;0.10;0.10;;;;;;;22.34;48.18;100782.69;5105355;28;20055;-44
2022/06/23 05:59:02;;;;;;;0.13;0.13;;;;;;;22.33;47.97;100783.84;5162757;27;20132;-41
2022/06/23 06:01:32;;;;;;;0.10;0.10;;;;;;;22.34;48.10;100785.47;5108914;27;20058;-40
2022/06/23 06:04:03;;;;;;;0.10;0.10;;;;;;;22.34;47.80;100791.84;5118197;27;20125;-41
2022/06/23 06:06:29;;;;;;;0.10;0.10;;;;;;;22.34;47.93;100791.84;5140519;27;20469;-37
2022/06/23 06:11:46;;;;;;;0.10;0.10;;;;;;;22.39;48.04;100800.06;5121333;27;20093;-40
2022/06/23 06:14:14;;;;;;;0.10;0.10;;;;;;;22.27;48.22;100794.19;5120347;27;20138;-39
2022/06/23 06:16:40;;;;;;;0.10;0.10;;;;;;;22.12;48.46;100783.34;5109232;27;20406;-39
2022/06/23 06:19:12;;;;;;;0.10;0.10;;;;;;;22.16;48.66;100784.41;5122477;27;20130;-40
2022/06/23 06:21:38;;;;;;;0.10;0.10;;;;;;;22.16;49.00;100788.00;5141976;27;20070;-39
2022/06/23 06:24:26;;;;;;;0.10;0.10;;;;;;;22.08;49.32;100785.06;5141299;27;20256;-40
2022/06/23 06:26:53;;;;;;;0.10;0.10;;;;;;;22.15;49.36;100783.59;5115230;27;20587;-39
2022/06/23 06:29:26;;;;;;;0.10;0.10;;;;;;;22.14;49.40;100773.59;5137330;27;20453;-40
2022/06/23 06:31:57;;;;;;;0.10;0.10;;;;;;;22.12;49.72;100780.56;5120169;27;20497;-40
2022/06/23 06:34:31;;;;;;;0.10;0.10;;;;;;;22.17;49.89;100784.09;5120690;27;20043;-38
2022/06/23 06:36:57;;;;;;;0.10;0.10;;;;;;;22.17;50.12;100788.81;5117804;27;20042;-40
2022/06/23 06:39:27;;;;;;;0.10;0.10;;;;;;;22.17;50.29;100780.50;5128694;27;20524;-41
2022/06/23 06:42:01;;;;;;;0.10;0.10;;;;;;;22.17;50.53;100786.06;5092487;27;20146;-40
2022/06/23 06:44:28;;;;;;;0.10;0.10;;;;;;;22.16;50.70;100790.78;5117664;27;20050;-39
2022/06/23 06:46:54;;;;;;;0.10;0.10;;;;;;;22.21;50.84;100784.31;5109475;27;20479;-38
2022/06/23 06:49:21;;;;;;;0.10;0.10;;;;;;;22.20;50.83;100780.72;5109640;27;20398;-40
2022/06/23 06:51:49;;;;;;;0.10;0.10;;;;;;;22.23;51.10;100791.19;5119516;27;20043;-37
2022/06/23 06:54:19;;;;;;;0.10;0.10;;;;;;;22.22;51.14;100789.53;5142811;27;20400;-39
2022/06/23 06:56:50;;;;;;;0.20;0.20;;;;;;;22.19;51.36;100794.88;5101094;27;20414;-40
2022/06/23 06:59:28;;;;;;;0.10;0.10;;;;;;;22.15;51.67;100799.38;5110771;27;20173;-41
2022/06/23 07:01:58;;;;;;;0.10;0.10;;;;;;;22.18;51.52;100793.25;5130606;27;20083;-40
2022/06/23 07:04:29;;;;;;;0.10;0.10;;;;;;;22.12;51.00;100797.22;5135007;27;20038;-39
2022/06/23 07:06:58;;;;;;;0.20;0.20;;;;;;;22.20;51.53;100793.78;5133231;27;20121;-40
2022/06/23 07:10:04;;;;;;;0.10;0.10;;;;;;;22.24;51.53;100800.34;5127575;27;20079;-39
2022/06/23 07:15:38;;;;;;;0.10;0.10;;;;;;;22.33;52.24;100790.19;5159519;27;20128;-36
2022/06/23 07:18:17;;;;;;;0.10;0.10;;;;;;;22.37;50.66;100794.00;5136166;27;20129;-40
2022/06/23 07:20:49;;;;;;;0.10;0.10;;;;;;;22.38;50.39;100781.78;5134254;27;20070;-40
2022/06/23 07:23:21;;;;;;;0.10;0.10;;;;;;;22.37;50.37;100788.47;5156768;27;20089;-37
2022/06/23 07:25:51;;;;;;;0.10;0.10;;;;;;;22.37;50.29;100784.88;5132091;27;20108;-43
2022/06/23 07:28:40;;;;;;;0.10;0.10;;;;;;;22.38;50.07;100784.56;5135147;27;20781;-40
2022/06/23 07:31:13;;;;;;;0.10;0.10;;;;;;;22.37;51.56;100782.09;5145597;27;20129;-35
2022/06/23 07:33:43;;;;;;;0.10;0.10;;;;;;;22.41;50.39;100789.50;5136446;27;20125;-41
2022/06/23 07:36:17;;;;;;;0.10;0.10;;;;;;;22.42;50.05;100777.25;5159883;27;20133;-40
2022/06/23 07:38:52;;;;;;;0.10;0.10;;;;;;;22.46;50.88;100774.69;5136529;27;20138;-35
2022/06/23 07:41:41;;;;;;;0.10;0.10;;;;;;;22.47;50.37;100777.16;5149861;27;20129;-36
2022/06/23 07:44:29;;;;;;;0.10;0.10;;;;;;;22.46;50.02;100769.16;5112538;27;20138;-40
2022/06/23 07:46:55;;;;;;;0.20;0.20;;;;;;;22.44;50.23;100769.44;5130840;27;20476;-40
2022/06/23 07:49:25;;;;;;;0.10;0.10;;;;;;;22.43;50.12;100765.03;5131793;27;20043;-40
2022/06/23 07:51:51;;;;;;;0.10;0.10;;;;;;;22.45;50.46;100764.72;5133540;27;20092;-39
2022/06/23 07:54:19;;;;;;;0.10;0.10;;;;;;;22.42;50.04;100760.63;5133206;27;20591;-40
2022/06/23 07:56:46;;;;;;;0.10;0.10;;;;;;;22.43;50.02;100769.75;5119240;27;20082;-41
2022/06/23 07:59:14;;;;;;;0.10;0.10;;;;;;;22.43;49.90;100770.59;5115098;27;20898;-40
2022/06/23 08:01:51;;;;;;;0.10;0.10;;;;;;;22.49;51.49;100766.56;5134318;27;20484;-42
2022/06/23 08:04:31;;;;;;;0.10;0.10;;;;;;;22.48;50.78;100758.56;5134275;27;20038;-38
2022/06/23 08:07:01;;;;;;;0.10;0.10;;;;;;;22.49;51.55;100762.97;5137383;27;20041;-37
2022/06/23 08:09:48;;;;;;;0.10;0.10;;;;;;;22.46;50.73;100756.09;5115818;27;20134;-40
2022/06/23 08:17:58;;;;;;;0.10;0.10;;;;;;;22.51;51.10;100767.09;5099910;27;20541;-41
2022/06/23 08:20:25;;;;;;;0.10;0.10;;;;;;;;;;5092597;27;20397;-43
2022/06/23 08:22:53;;;;;;;0.10;0.10;;;;;;;22.52;50.96;100765.97;5127389;27;20130;-36
2022/06/23 08:25:18;;;;;;;;;;;;;;;22.52;50.60;100765.13;5095372;28;20122;-41
2022/06/23 08:27:52;;;;;;;0.10;0.10;;;;;;;22.53;51.57;100761.22;5115820;28;20335;-39
2022/06/23 08:30:18;;;;;;;0.10;0.10;;;;;;;22.51;51.10;100767.09;5116087;27;20083;-41
2022/06/23 08:32:47;;;;;;;0.10;0.10;;;;;;;22.52;50.52;100756.81;5118954;28;20130;-42
2022/06/23 08:35:25;;;;;;;0.10;0.10;;;;;;;22.51;50.59;100758.78;5097507;28;20149;-42
2022/06/23 08:37:53;;;;;;;;;;;;;;;22.53;50.53;100756.50;5097905;28;20126;-37
2022/06/23 08:40:29;;;;;;;0.10;0.10;;;;;;;22.52;50.50;100763.19;5118957;28;19962;-37
2022/06/23 08:43:10;;;;;;;0.10;0.10;;;;;;;22.55;51.18;100772.84;5115264;27;20415;-40
2022/06/23 08:45:40;;;;;;;0.10;0.10;;;;;;;22.60;51.27;100771.94;5121964;28;20115;-40
2022/06/23 08:48:12;;;;;;;0.10;0.10;;;;;;;22.61;52.44;100777.16;5086055;28;20043;-38
2022/06/23 08:50:43;;;;;;;0.10;0.10;;;;;;;22.61;52.07;100768.84;5120292;27;20473;-42
2022/06/23 08:53:49;;;;;;;0.10;0.10;;;;;;;22.60;51.17;100767.19;5120996;27;20047;-41
2022/06/23 08:56:19;;;;;;;0.10;0.10;;;;;;;22.58;50.94;100765.84;5091877;28;20185;-37
2022/06/23 08:58:52;;;;;;;0.10;0.10;;;;;;;22.60;51.18;100769.16;5100031;28;20071;-42
2022/06/23 09:01:28;;;;;;;0.10;0.10;;;;;;;22.57;52.04;100767.81;5099888;28;20118;-40
2022/06/23 09:04:01;;;;;;;0.10;0.10;;;;;;;22.59;51.38;100776.66;5115620;28;20061;-39
2022/06/23 09:06:36;;;;;;;0.10;0.10;;;;;;;22.59;51.61;100767.53;5122938;28;20458;-40
2022/06/23 09:09:29;;;;;;;0.10;0.10;;;;;;;22.59;53.28;100768.34;5117514;28;20122;-40
2022/06/23 09:12:35;;;;;;;0.10;0.10;;;;;;;22.62;51.32;100764.09;5109809;28;20071;-41
2022/06/23 09:18:02;;;;;;;0.10;0.10;;;;;;;22.61;51.25;100759.69;5152577;27;20205;-40
2022/06/23 09:21:07;;;;;;;0.10;0.10;;;;;;;22.61;51.22;100754.97;5153752;27;20394;-40
2022/06/23 09:24:18;;;;;;;0.10;0.10;;;;;;;22.61;50.86;100751.38;5133591;27;20054;-40
2022/06/23 09:26:59;;;;;;;0.10;0.10;;;;;;;22.60;51.14;100742.22;5134288;27;20514;-41
2022/06/23 09:30:00;;;;;;;0.10;0.10;;;;;;;22.60;52.12;100739.44;5146286;27;20043;-40
2022/06/23 09:32:41;;;;;;;0.10;0.10;;;;;;;22.65;51.17;100735.75;5146928;27;20082;-40
2022/06/23 09:35:47;;;;;;;0.10;0.10;;;;;;;22.65;50.82;100732.97;5149697;27;20133;-40
2022/06/23 09:38:52;;;;;;;0.10;0.10;;;;;;;22.64;50.84;100726.59;5134430;27;20082;-40
2022/06/23 09:41:30;;;;;;;0.10;0.10;;;;;;;22.64;51.01;100728.56;5138737;27;20142;-37
2022/06/23 09:44:36;;;;;;;0.10;0.10;;;;;;;22.65;51.71;100728.25;5130715;27;20067;-39
2022/06/23 09:50:25;;;;;;;0.10;0.10;;;;;;;22.65;50.96;100719.91;5169427;27;20124;-42
2022/06/23 09:53:31;;;;;;;0.10;0.10;;;;;;;22.65;51.51;100719.09;5145046;27;20047;-39
2022/06/23 09:56:10;;;;;;;0.10;0.10;;;;;;;22.63;50.98;100715.81;5117807;27;20061;-38
2022/06/23 09:59:15;;;;;;;0.10;0.10;;;;;;;22.65;51.21;100719.91;5151125;27;20134;-42
2022/06/23 10:02:07;;;;;;;0.10;0.10;;;;;;;22.69;52.57;100715.38;5120944;27;20188;-43
2022/06/23 10:05:03;;;;;;;0.10;0.10;;;;;;;22.73;51.92;100710.84;5138017;27;20091;-38
2022/06/23 10:07:41;;;;;;;0.20;0.20;;;;;;;22.75;51.76;100707.75;5150988;27;20089;-39
2022/06/23 10:10:16;;;;;;;0.10;0.10;;;;;;;22.73;51.40;100715.59;5134264;27;20487;-42
2022/06/23 10:21:09;;;;;;;0.10;0.10;;;;;;;22.73;51.92;100712.81;5156388;27;20532;-38
2022/06/23 10:24:06;;;;;;;0.10;0.10;;;;;;;22.71;51.19;100715.91;5133497;27;20230;-35
2022/06/23 10:26:44;;;;;;;0.10;0.10;;;;;;;22.72;51.25;100713.94;5121934;27;20138;-40
2022/06/23 10:29:37;;;;;;;0.10;0.10;;;;;;;22.72;51.83;100717.56;5133874;27;20378;-37
2022/06/23 10:32:37;;;;;;;0.10;0.10;;;;;;;22.72;50.94;100706.44;5136299;27;20133;-39
2022/06/23 10:35:28;;;;;;;0.10;0.10;;;;;;;22.90;51.67;100704.69;5120007;27;20082;-40
2022/06/23 10:38:11;;;;;;;0.10;0.10;;;;;;;22.87;51.48;100712.78;5116689;27;20545;-38
2022/06/23 10:40:49;;;;;;;0.10;0.10;;;;;;;22.82;51.34;100697.06;5132083;27;20142;-37
2022/06/23 10:43:56;;;;;;;0.10;0.10;;;;;;;22.92;52.49;100702.41;5115668;27;20129;-36
2022/06/23 10:46:33;;;;;;;0.10;0.10;;;;;;;22.95;52.06;100696.25;5119800;27;20142;-37
2022/06/23 10:49:35;;;;;;;0.10;0.10;;;;;;;22.88;51.92;100687.47;5116910;27;20134;-37
2022/06/23 10:52:41;;;;;;;0.10;0.10;;;;;;;22.83;51.35;100689.56;5118082;27;20088;-36
2022/06/23 10:55:30;;;;;;;0.10;0.10;;;;;;;22.85;52.14;100681.75;5112535;27;20500;-40
2022/06/23 10:58:21;;;;;;;0.10;0.10;;;;;;;22.83;51.96;100686.78;5119248;27;20130;-40
2022/06/23 11:01:13;;;;;;;0.10;0.10;;;;;;;22.82;51.18;100674.03;5119497;27;20055;-40
2022/06/23 11:04:07;;;;;;;0.10;0.10;;;;;;;22.81;52.29;100689.06;5119044;27;20413;-38
2022/06/23 11:06:49;;;;;;;0.10;0.10;;;;;;;22.79;52.04;100681.84;5119435;27;21900;-40
2022/06/23 11:09:40;;;;;;;0.10;0.10;;;;;;;22.82;52.02;100687.91;5134695;27;20126;-41
2022/06/23 11:12:33;;;;;;;0.10;0.10;;;;;;;22.81;51.49;100680.72;5115520;27;20091;-40
2022/06/23 11:15:26;;;;;;;0.10;0.10;;;;;;;22.81;51.62;100678.78;5120921;27;20150;-40
2022/06/23 11:18:31;;;;;;;0.10;0.10;;;;;;;22.82;51.45;100676.81;5124162;27;20130;-41
2022/06/23 11:21:21;;;;;;;0.10;0.10;;;;;;;22.89;51.64;100674.44;5124290;27;20180;-40
2022/06/23 11:23:55;;;;;;;0.10;0.10;;;;;;;22.85;51.75;100673.44;5119482;27;20078;-41
2022/06/23 11:26:35;;;;;;;0.10;0.10;;;;;;;22.87;51.71;100669.19;5132120;27;20126;-40
2022/06/23 11:32:08;;;;;;;0.10;0.10;;;;;;;22.87;51.98;100671.13;5157308;27;20206;-37
2022/06/23 11:34:50;;;;;;;0.10;0.10;;;;;;;22.87;52.07;100674.72;5135864;27;20077;-41
2022/06/23 11:37:44;;;;;;;0.10;0.10;;;;;;;22.86;51.44;100659.22;5135779;27;20047;-41
2022/06/23 11:40:39;;;;;;;0.10;0.10;;;;;;;22.86;51.50;100663.94;5125663;27;20070;-43
2022/06/23 11:43:30;;;;;;;0.10;0.10;;;;;;;22.89;51.42;100657.78;5128740;27;20046;-40
2022/06/23 11:46:05;;;;;;;0.10;0.10;;;;;;;22.87;51.57;100657.25;5124877;27;20359;-41
2022/06/23 11:48:41;;;;;;;0.10;0.10;;;;;;;22.87;51.68;100652.53;5129887;27;20043;-42
2022/06/23 11:54:30;;;;;;;0.10;0.10;;;;;;;22.87;51.37;100657.25;5122266;27;20790;-41
2022/06/23 12:00:12;;;;;;;0.10;0.10;;;;;;;22.93;52.51;100639.41;5167222;27;20205;-41
2022/06/23 12:03:16;;;;;;;0.10;0.10;;;;;;;22.87;52.32;100632.28;5105214;27;20051;-41
2022/06/23 12:05:51;;;;;;;0.17;0.17;;;;;;;22.86;52.19;100625.91;5148088;27;20067;-41
2022/06/23 12:08:30;;;;;;;0.10;0.10;;;;;;;22.74;52.54;100629.22;5144132;27;20076;-39
2022/06/23 12:10:55;;;;;;;0.10;0.10;;;;;;;22.72;52.44;100623.16;5137690;27;20141;-40
2022/06/23 12:13:24;;;;;;;0.10;0.10;;;;;;;22.73;52.35;100630.34;5140576;27;20047;-40
2022/06/23 12:15:51;;;;;;;0.10;0.10;;;;;;;22.82;52.22;100627.66;5145496;27;20186;-40
2022/06/23 12:18:20;;;;;;;0.10;0.10;;;;;;;22.78;52.24;100630.22;5130158;27;20104;-40
2022/06/23 12:21:09;;;;;;;0.10;0.10;;;;;;;22.87;51.63;100623.94;5129580;27;20070;-40
2022/06/23 12:23:42;;;;;;;0.10;0.10;;;;;;;22.95;51.66;100626.00;5122607;27;20071;-40
2022/06/23 12:26:20;;;;;;;0.10;0.10;;;;;;;22.95;51.48;100624.03;5130899;27;20062;-42
2022/06/23 12:29:09;;;;;;;0.10;0.10;;;;;;;22.93;51.31;100612.44;5110425;27;20099;-38
2022/06/23 12:31:44;;;;;;;0.10;0.10;;;;;;;22.91;51.17;100616.66;5131302;27;20134;-40
2022/06/23 12:34:33;;;;;;;0.10;0.10;;;;;;;22.91;51.32;100625.81;5149302;27;20050;-38
2022/06/23 12:37:11;;;;;;;0.10;0.10;;;;;;;22.91;51.35;100611.91;5130908;27;20070;-37
2022/06/23 12:39:44;;;;;;;0.10;0.10;;;;;;;22.90;51.37;100610.28;5130434;27;20472;-38
2022/06/23 12:42:19;;;;;;;0.10;0.10;;;;;;;22.91;51.20;100611.09;5143127;27;20500;-41
2022/06/23 12:45:09;;;;;;;0.10;0.10;;;;;;;22.90;51.29;100598.34;5118154;27;20086;-40
2022/06/23 12:48:06;;;;;;;0.10;0.10;;;;;;;22.91;51.30;100603.59;5129626;27;20146;-41
2022/06/23 12:51:02;;;;;;;0.10;0.10;;;;;;;22.93;51.25;100600.53;5152698;27;20070;-42
2022/06/23 12:54:00;;;;;;;0.10;0.10;;;;;;;22.92;51.35;100596.06;5121812;27;20043;-40
2022/06/23 12:56:39;;;;;;;0.10;0.10;;;;;;;22.91;51.44;100577.78;5131424;27;20078;-40
2022/06/23 12:59:09;;;;;;;0.10;0.10;;;;;;;22.91;51.25;100589.72;5154861;27;20462;-40
2022/06/23 13:01:40;;;;;;;0.10;0.10;;;;;;;22.91;51.12;100588.88;5152600;27;20074;-40
2022/06/23 13:06:55;;;;;;;0.10;0.10;;;;;;;22.93;51.31;100587.44;5170039;27;20129;-41
2022/06/23 13:09:44;;;;;;;0.10;0.10;;;;;;;22.93;51.07;100583.84;5117513;27;21812;-40
2022/06/23 13:12:46;;;;;;;0.10;0.10;;;;;;;22.94;51.01;100577.97;5122927;27;20054;-41
2022/06/23 13:18:00;;;;;;;0.10;0.10;;;;;;;22.94;50.99;100575.19;5166971;27;20209;-42
2022/06/23 13:20:36;;;;;;;0.10;0.10;;;;;;;22.93;50.90;100568.00;5149214;27;20437;-44
2022/06/23 13:23:06;;;;;;;0.10;0.10;;;;;;;22.94;51.02;100566.06;5166215;27;20126;-42
2022/06/23 13:25:56;;;;;;;0.10;0.10;;;;;;;22.95;51.01;100573.25;5149801;27;20103;-42
2022/06/23 13:28:30;;;;;;;0.10;0.10;;;;;;;22.94;51.04;100572.44;5165741;27;20371;-40